createdAt,value
2018-11-10T00:00:05.853Z,197.83
2018-11-10T00:02:33.802Z,191.30
2018-11-10T00:05:01.759Z,188.87
2018-11-10T00:07:29.729Z,193.83
2018-11-10T00:10:14.938Z,204.97
2018-11-10T00:12:42.950Z,199.57
2018-11-10T00:15:12.132Z,191.47
2018-11-10T00:17:40.073Z,200.00
2018-11-10T00:20:08.309Z,184.30
2018-11-10T00:22:36.963Z,203.63
2018-11-10T00:25:06.028Z,191.70
2018-11-10T00:27:33.966Z,196.67
2018-11-10T00:30:01.866Z,200.37
2018-11-10T00:32:29.774Z,205.30
2018-11-10T00:34:57.761Z,210.00
2018-11-10T00:37:25.731Z,210.97
2018-11-10T00:39:53.657Z,213.37
2018-11-10T00:42:21.579Z,226.57
2018-11-10T00:44:49.519Z,210.87
2018-11-10T00:47:17.482Z,215.70
2018-11-10T00:49:45.446Z,221.97
2018-11-10T00:52:13.395Z,217.97
2018-11-10T00:54:41.489Z,217.60
2018-11-10T00:57:09.460Z,218.83
2018-11-10T00:59:37.437Z,230.83
2018-11-10T01:02:05.971Z,228.47
2018-11-10T01:04:34.009Z,207.40
2018-11-10T01:07:01.976Z,198.40
2018-11-10T01:09:29.895Z,194.23
2018-11-10T01:11:57.831Z,208.70
2018-11-10T01:14:25.756Z,179.60
2018-11-10T01:16:53.691Z,207.37
2018-11-10T01:19:22.391Z,205.00
2018-11-10T01:21:50.316Z,175.50
2018-11-10T01:24:18.312Z,183.57
2018-11-10T01:26:46.223Z,175.20
2018-11-10T01:29:14.156Z,172.63
2018-11-10T01:31:42.089Z,182.33
2018-11-10T01:34:10.041Z,187.20
2018-11-10T01:36:37.957Z,167.63
2018-11-10T01:39:07.189Z,159.17
2018-11-10T01:41:35.138Z,175.20
2018-11-10T01:44:03.097Z,169.83
2018-11-10T01:46:31.346Z,169.93
2018-11-10T01:48:59.295Z,160.97
2018-11-10T01:51:27.288Z,160.60
2018-11-10T01:53:55.231Z,164.07
2018-11-10T01:56:23.219Z,168.53
2018-11-10T01:58:51.136Z,157.70
2018-11-10T02:01:19.068Z,150.20
2018-11-10T02:03:47.411Z,154.17
2018-11-10T02:06:15.327Z,141.97
2018-11-10T02:08:43.244Z,150.30
2018-11-10T02:11:11.292Z,148.00
2018-11-10T02:13:39.468Z,150.23
2018-11-10T02:16:07.415Z,154.70
2018-11-10T02:18:35.404Z,156.87
2018-11-10T02:21:03.436Z,145.10
2018-11-10T02:23:31.768Z,152.57
2018-11-10T02:25:59.787Z,140.53
2018-11-10T02:28:27.959Z,151.33
2018-11-10T02:30:55.900Z,140.57
2018-11-10T02:33:24.155Z,153.87
2018-11-10T02:35:52.054Z,148.23
2018-11-10T02:38:19.999Z,145.67
2018-11-10T02:40:48.524Z,163.73
2018-11-10T02:43:16.460Z,165.07
2018-11-10T02:45:44.364Z,143.73
2018-11-10T02:48:12.307Z,152.10
2018-11-10T02:50:40.202Z,140.93
2018-11-10T02:53:08.155Z,142.83
2018-11-10T02:55:36.090Z,138.47
2018-11-10T02:58:04.067Z,139.23
2018-11-10T03:00:32.080Z,140.97
2018-11-10T03:03:00.029Z,120.87
2018-11-10T03:05:27.934Z,129.17
2018-11-10T03:07:55.834Z,146.30
2018-11-10T03:10:23.795Z,138.63
2018-11-10T03:12:52.121Z,137.60
2018-11-10T03:15:20.144Z,124.77
2018-11-10T03:17:48.153Z,111.43
2018-11-10T03:20:16.051Z,118.83
2018-11-10T03:22:44.626Z,122.03
2018-11-10T03:25:12.577Z,109.57
2018-11-10T03:27:40.792Z,110.90
2018-11-10T03:30:08.798Z,107.10
2018-11-10T03:32:37.365Z,109.47
2018-11-10T03:35:05.832Z,105.97
2018-11-10T03:37:33.773Z,113.33
2018-11-10T03:40:02.012Z,118.60
2018-11-10T03:42:29.931Z,121.40
2018-11-10T03:44:57.844Z,104.20
2018-11-10T03:47:25.872Z,117.33
2018-11-10T03:49:54.740Z,123.93
2018-11-10T03:52:22.667Z,120.53
2018-11-10T03:54:50.614Z,126.43
2018-11-10T03:57:18.550Z,128.47
2018-11-10T03:59:46.482Z,121.63
2018-11-10T04:02:14.459Z,116.43
2018-11-10T04:04:42.451Z,116.30
2018-11-10T04:07:10.360Z,117.70
2018-11-10T04:09:38.283Z,136.87
2018-11-10T04:12:06.214Z,137.37
2018-11-10T04:14:34.138Z,123.83
2018-11-10T04:17:03.061Z,112.60
2018-11-10T04:19:31.548Z,110.60
2018-11-10T04:21:59.511Z,129.47
2018-11-10T04:24:27.494Z,120.80
2018-11-10T04:26:56.391Z,115.10
2018-11-10T04:29:24.680Z,112.00
2018-11-10T04:31:52.610Z,106.57
2018-11-10T04:34:20.536Z,115.70
2018-11-10T04:36:48.535Z,118.20
2018-11-10T04:39:16.487Z,104.17
2018-11-10T04:41:44.419Z,101.03
2018-11-10T04:44:12.330Z,102.00
2018-11-10T04:46:40.264Z,107.27
2018-11-10T04:49:08.348Z,109.57
2018-11-10T04:51:36.262Z,108.17
2018-11-10T04:54:04.587Z,94.70
2018-11-10T04:56:32.534Z,106.73
2018-11-10T04:59:00.568Z,118.10
2018-11-10T05:01:28.562Z,97.90
2018-11-10T05:03:56.527Z,103.70
2018-11-10T05:06:24.431Z,98.60
2018-11-10T05:08:52.449Z,108.70
2018-11-10T05:11:20.363Z,101.17
2018-11-10T05:13:48.319Z,100.77
2018-11-10T05:16:16.264Z,96.27
2018-11-10T05:18:44.201Z,94.33
2018-11-10T05:21:12.142Z,112.57
2018-11-10T05:23:40.074Z,93.17
2018-11-10T05:26:08.028Z,92.10
2018-11-10T05:28:35.947Z,91.93
2018-11-10T05:31:04.105Z,109.03
2018-11-10T05:33:32.000Z,108.73
2018-11-10T05:35:59.932Z,98.17
2018-11-10T05:38:27.873Z,102.83
2018-11-10T05:40:55.880Z,97.93
2018-11-10T05:43:23.829Z,104.43
2018-11-10T05:45:51.792Z,102.73
2018-11-10T05:48:19.749Z,99.37
2018-11-10T05:50:47.681Z,90.13
2018-11-10T05:53:15.619Z,101.83
2018-11-10T05:55:43.522Z,109.37
2018-11-10T05:58:11.445Z,101.30
2018-11-10T06:00:40.225Z,97.40
2018-11-10T06:03:08.265Z,103.57
2018-11-10T06:05:37.041Z,97.97
2018-11-10T06:08:04.988Z,95.27
2018-11-10T06:10:32.964Z,102.03
2018-11-10T06:13:01.689Z,95.37
2018-11-10T06:15:29.642Z,94.60
2018-11-10T06:17:57.592Z,83.97
2018-11-10T06:20:26.145Z,92.57
2018-11-10T06:22:54.101Z,80.03
2018-11-10T06:25:22.028Z,80.07
2018-11-10T06:27:50.918Z,76.33
2018-11-10T06:30:18.862Z,77.07
2018-11-10T06:32:46.913Z,76.57
2018-11-10T06:35:14.791Z,70.60
2018-11-10T06:37:42.708Z,84.17
2018-11-10T06:40:11.936Z,77.47
2018-11-10T06:42:40.230Z,79.70
2018-11-10T06:45:08.255Z,74.97
2018-11-10T06:47:36.560Z,63.97
2018-11-10T06:50:05.408Z,69.77
2018-11-10T06:52:34.336Z,72.30
2018-11-10T06:55:02.254Z,56.70
2018-11-10T06:57:30.197Z,65.60
2018-11-10T06:59:58.116Z,54.43
2018-11-10T07:02:26.171Z,62.07
2018-11-10T07:04:54.108Z,58.30
2018-11-10T07:07:22.079Z,56.10
2018-11-10T07:09:50.014Z,51.20
2018-11-10T07:12:17.965Z,58.13
2018-11-10T07:14:45.926Z,53.60
2018-11-10T07:17:13.929Z,60.93
2018-11-10T07:19:41.927Z,49.60
2018-11-10T07:22:09.889Z,48.43
2018-11-10T07:24:37.794Z,57.10
2018-11-10T07:27:05.795Z,58.33
2018-11-10T07:29:33.743Z,53.17
2018-11-10T07:32:01.890Z,55.60
2018-11-10T07:34:29.874Z,54.80
2018-11-10T07:36:57.847Z,52.17
2018-11-10T07:39:25.766Z,47.47
2018-11-10T07:41:53.758Z,53.43
2018-11-10T07:44:21.729Z,51.73
2018-11-10T07:46:49.655Z,55.50
2018-11-10T07:49:18.679Z,51.67
2018-11-10T07:51:46.628Z,50.03
2018-11-10T07:54:15.204Z,53.10
2018-11-10T07:56:43.133Z,51.27
2018-11-10T07:59:11.078Z,51.80
2018-11-10T08:01:38.979Z,52.50
2018-11-10T08:04:07.442Z,48.40
2018-11-10T08:06:35.390Z,50.60
2018-11-10T08:09:04.067Z,53.33
2018-11-10T08:11:32.000Z,46.37
2018-11-10T08:13:59.929Z,43.83
2018-11-10T08:16:27.871Z,45.43
2018-11-10T08:18:55.802Z,39.73
2018-11-10T08:21:23.820Z,41.87
2018-11-10T08:23:51.725Z,44.37
2018-11-10T08:26:19.771Z,47.27
2018-11-10T08:28:47.842Z,45.43
2018-11-10T08:31:16.739Z,49.70
2018-11-10T08:33:44.564Z,43.10
2018-11-10T08:36:12.508Z,42.90
2018-11-10T08:38:40.431Z,43.53
2018-11-10T08:41:08.404Z,39.97
2018-11-10T08:43:36.362Z,40.90
2018-11-10T08:46:04.606Z,39.43
2018-11-10T08:48:32.538Z,28.20
2018-11-10T08:51:00.499Z,30.50
2018-11-10T08:53:28.524Z,33.90
2018-11-10T08:55:56.453Z,30.37
2018-11-10T08:58:25.127Z,29.90
2018-11-10T09:00:53.065Z,25.13
2018-11-10T09:03:21.079Z,27.13
2018-11-10T09:05:49.107Z,29.30
2018-11-10T09:08:17.141Z,28.23
2018-11-10T09:10:45.132Z,25.33
2018-11-10T09:13:13.119Z,30.67
2018-11-10T09:15:41.097Z,26.63
2018-11-10T09:18:09.036Z,31.53
2018-11-10T09:20:37.125Z,27.97
2018-11-10T09:23:05.107Z,28.63
2018-11-10T09:25:33.374Z,27.60
2018-11-10T09:28:01.347Z,32.93
2018-11-10T09:30:29.255Z,29.10
2018-11-10T09:32:57.224Z,25.00
2018-11-10T09:35:25.190Z,30.07
2018-11-10T09:37:53.280Z,29.93
2018-11-10T09:40:21.219Z,36.13
2018-11-10T09:42:49.605Z,33.03
2018-11-10T09:45:17.791Z,32.40
2018-11-10T09:47:45.815Z,30.27
2018-11-10T09:50:16.718Z,31.23
2018-11-10T09:53:00.250Z,31.90
2018-11-10T09:55:28.296Z,33.13
2018-11-10T09:57:56.276Z,31.17
2018-11-10T10:00:24.217Z,35.57
2018-11-10T10:02:52.416Z,35.23
2018-11-10T10:05:20.260Z,32.07
2018-11-10T10:07:48.349Z,32.03
2018-11-10T10:10:17.497Z,31.00
2018-11-10T10:12:46.816Z,32.30
2018-11-10T10:15:17.855Z,28.60
2018-11-10T10:17:46.260Z,29.67
2018-11-10T10:20:15.582Z,34.43
2018-11-10T10:25:47.169Z,29.37
2018-11-10T10:28:15.147Z,30.67
2018-11-10T10:30:44.312Z,33.63
2018-11-10T10:33:12.314Z,30.20
2018-11-10T10:35:40.489Z,28.77
2018-11-10T10:38:08.283Z,28.40
2018-11-10T10:40:36.223Z,28.57
2018-11-10T10:43:04.261Z,27.70
2018-11-10T10:45:32.189Z,27.30
2018-11-10T10:48:00.130Z,29.50
2018-11-10T10:50:28.141Z,33.70
2018-11-10T10:52:56.135Z,28.50
2018-11-10T10:55:24.089Z,30.40
2018-11-10T10:57:52.063Z,31.70
2018-11-10T11:00:25.944Z,30.33
2018-11-10T11:03:57.569Z,29.43
2018-11-10T11:06:25.550Z,29.37
2018-11-10T11:08:53.541Z,28.90
2018-11-10T11:11:21.493Z,30.80
2018-11-10T11:13:49.499Z,29.80
2018-11-10T11:16:17.487Z,31.13
2018-11-10T11:18:45.472Z,31.53
2018-11-10T11:21:13.510Z,31.63
2018-11-10T11:23:41.428Z,27.00
2018-11-10T11:26:09.387Z,30.43
2018-11-10T11:28:37.326Z,29.50
2018-11-10T11:31:05.287Z,29.40
2018-11-10T11:33:33.293Z,28.07
2018-11-10T11:36:01.260Z,34.20
2018-11-10T11:38:29.223Z,35.90
2018-11-10T11:40:57.295Z,31.60
2018-11-10T11:43:25.286Z,28.77
2018-11-10T11:45:53.239Z,28.00
2018-11-10T11:48:21.199Z,29.40
2018-11-10T11:50:49.201Z,27.83
2018-11-10T11:53:17.142Z,29.23
2018-11-10T11:55:45.180Z,27.13
2018-11-10T11:58:13.325Z,24.13
2018-11-10T12:00:41.206Z,27.47
2018-11-10T12:03:09.255Z,26.50
2018-11-10T12:05:37.296Z,26.70
2018-11-10T12:08:05.399Z,24.00
2018-11-10T12:10:33.407Z,21.10
2018-11-10T12:13:01.444Z,23.37
2018-11-10T12:15:29.512Z,21.37
2018-11-10T12:17:57.485Z,21.00
2018-11-10T12:20:27.587Z,20.17
2018-11-10T12:22:55.534Z,21.77
2018-11-10T12:25:23.525Z,17.60
2018-11-10T12:27:51.516Z,17.93
2018-11-10T12:30:19.469Z,17.13
2018-11-10T12:32:47.471Z,16.13
2018-11-10T12:35:15.437Z,14.90
2018-11-10T12:37:43.755Z,17.33
2018-11-10T12:40:12.751Z,16.00
2018-11-10T12:42:40.816Z,16.83
2018-11-10T12:45:09.895Z,15.90
2018-11-10T12:47:38.657Z,16.57
2018-11-10T12:50:07.479Z,14.50
2018-11-10T12:52:35.405Z,13.90
2018-11-10T12:55:03.762Z,14.33
2018-11-10T12:57:31.828Z,15.43
2018-11-10T12:59:59.866Z,12.90
2018-11-10T13:02:27.909Z,13.50
2018-11-10T13:04:55.934Z,13.37
2018-11-10T13:07:23.933Z,12.70
2018-11-10T13:09:51.999Z,12.43
2018-11-10T13:12:19.973Z,14.00
2018-11-10T13:14:47.961Z,10.57
2018-11-10T13:17:16.009Z,13.20
2018-11-10T13:19:43.950Z,13.90
2018-11-10T13:22:11.912Z,14.70
2018-11-10T13:24:39.922Z,10.87
2018-11-10T13:27:07.966Z,13.60
2018-11-10T13:29:35.912Z,14.40
2018-11-10T13:32:04.232Z,11.20
2018-11-10T13:34:32.199Z,12.20
2018-11-10T13:37:00.217Z,15.03
2018-11-10T13:39:28.240Z,13.40
2018-11-10T13:41:56.240Z,13.17
2018-11-10T13:44:24.270Z,15.07
2018-11-10T13:46:52.236Z,12.30
2018-11-10T13:49:20.199Z,13.10
2018-11-10T13:51:48.418Z,13.37
2018-11-10T13:54:16.134Z,14.67
2018-11-10T13:56:44.188Z,12.77
2018-11-10T13:59:12.211Z,14.03
2018-11-10T14:01:40.177Z,14.40
2018-11-10T14:04:08.165Z,16.00
2018-11-10T14:06:36.155Z,16.27
2018-11-10T14:09:05.376Z,30.10
2018-11-10T14:11:33.463Z,12.07
2018-11-10T14:14:01.445Z,17.37
2018-11-10T14:16:29.488Z,13.40
2018-11-10T14:18:57.514Z,16.40
2018-11-10T14:21:25.656Z,15.60
2018-11-10T14:23:53.623Z,15.20
2018-11-10T14:26:21.674Z,14.47
2018-11-10T14:28:49.706Z,12.47
2018-11-10T14:31:17.704Z,14.13
2018-11-10T14:33:45.762Z,15.23
2018-11-10T14:36:13.731Z,15.70
2018-11-10T14:38:41.734Z,14.90
2018-11-10T14:41:09.757Z,18.10
2018-11-10T14:43:37.719Z,12.77
2018-11-10T14:46:05.719Z,15.10
2018-11-10T14:48:33.746Z,13.53
2018-11-10T14:51:01.744Z,14.80
2018-11-10T14:53:29.730Z,17.73
2018-11-10T14:55:57.776Z,15.03
2018-11-10T14:58:25.811Z,15.77
2018-11-10T15:00:53.842Z,13.50
2018-11-10T15:03:21.822Z,16.87
2018-11-10T15:05:49.906Z,16.13
2018-11-10T15:08:17.812Z,16.87
2018-11-10T15:10:45.834Z,18.83
2018-11-10T15:13:13.853Z,18.20
2018-11-10T15:15:41.828Z,17.93
2018-11-10T15:18:09.881Z,16.87
2018-11-10T15:20:37.725Z,15.73
2018-11-10T15:23:06.275Z,17.40
2018-11-10T15:25:34.280Z,16.03
2018-11-10T15:28:02.215Z,17.30
2018-11-10T15:30:30.234Z,16.60
2018-11-10T15:32:58.250Z,15.23
2018-11-10T15:35:26.198Z,14.97
2018-11-10T15:37:54.177Z,18.83
2018-11-10T15:40:22.866Z,17.57
2018-11-10T15:42:50.875Z,19.07
2018-11-10T15:45:19.606Z,21.27
2018-11-10T15:47:47.585Z,16.30
2018-11-10T15:50:16.483Z,17.00
2018-11-10T15:52:44.456Z,18.53
2018-11-10T15:55:13.845Z,19.87
2018-11-10T15:57:42.667Z,20.57
2018-11-10T16:00:13.442Z,21.20
2018-11-10T16:02:41.795Z,17.63
2018-11-10T16:05:10.759Z,21.73
2018-11-10T16:07:39.141Z,24.60
2018-11-10T16:10:07.231Z,24.50
2018-11-10T16:12:35.317Z,23.23
2018-11-10T16:15:03.512Z,24.13
2018-11-10T16:17:31.548Z,21.83
2018-11-10T16:19:59.565Z,22.33
2018-11-10T16:22:27.545Z,27.57
2018-11-10T16:24:55.527Z,23.93
2018-11-10T16:27:23.743Z,23.40
2018-11-10T16:29:51.763Z,22.60
2018-11-10T16:32:19.792Z,25.73
2018-11-10T16:34:47.789Z,23.67
2018-11-10T16:37:15.879Z,26.47
2018-11-10T16:39:43.846Z,22.60
2018-11-10T16:42:11.778Z,26.67
2018-11-10T16:44:40.396Z,34.30
2018-11-10T16:47:08.423Z,29.10
2018-11-10T16:49:36.346Z,28.17
2018-11-10T16:52:04.369Z,29.80
2018-11-10T16:54:32.367Z,28.23
2018-11-10T16:57:00.421Z,29.80
2018-11-10T16:59:28.436Z,29.10
2018-11-10T17:01:58.038Z,27.77
2018-11-10T17:04:25.990Z,35.00
2018-11-10T17:06:53.996Z,30.57
2018-11-10T17:09:21.929Z,32.37
2018-11-10T17:11:49.908Z,43.03
2018-11-10T17:14:17.952Z,29.70
2018-11-10T17:16:45.906Z,31.07
2018-11-10T17:19:13.914Z,28.60
2018-11-10T17:21:42.139Z,28.80
2018-11-10T17:24:10.065Z,28.43
2018-11-10T17:26:38.088Z,32.57
2018-11-10T17:29:06.227Z,28.10
2018-11-10T17:31:34.228Z,25.87
2018-11-10T17:34:02.252Z,30.83
2018-11-10T17:36:30.257Z,28.77
2018-11-10T17:38:58.427Z,27.77
2018-11-10T17:41:26.388Z,29.13
2018-11-10T17:43:54.347Z,28.00
2018-11-10T17:46:22.454Z,30.20
2018-11-10T17:48:50.476Z,32.90
2018-11-10T17:51:18.469Z,28.53
2018-11-10T17:53:46.452Z,30.97
2018-11-10T17:56:14.429Z,32.53
2018-11-10T17:58:42.464Z,31.20
2018-11-10T18:01:10.583Z,34.17
2018-11-10T18:03:38.654Z,33.70
2018-11-10T18:06:06.602Z,40.33
2018-11-10T18:08:34.719Z,36.87
2018-11-10T18:11:07.469Z,40.90
2018-11-10T18:13:39.340Z,34.13
2018-11-10T18:16:09.955Z,43.40
2018-11-10T18:18:45.147Z,37.37
2018-11-10T18:21:13.340Z,36.10
2018-11-10T18:23:41.481Z,36.70
2018-11-10T18:26:10.644Z,38.40
2018-11-10T18:28:38.758Z,36.40
2018-11-10T18:31:07.259Z,41.27
2018-11-10T18:33:35.471Z,40.07
2018-11-10T18:36:06.069Z,38.37
2018-11-10T18:38:34.866Z,36.70
2018-11-10T18:41:04.464Z,38.33
2018-11-10T18:43:34.227Z,38.08
2018-11-10T18:46:05.526Z,41.73
2018-11-10T18:48:37.917Z,37.63
2018-11-10T18:51:07.234Z,34.33
2018-11-10T18:53:35.553Z,38.27
2018-11-10T18:56:03.604Z,42.13
2018-11-10T18:58:31.601Z,42.00
2018-11-10T19:00:59.530Z,41.00
2018-11-10T19:03:27.556Z,39.07
2018-11-10T19:05:55.545Z,36.30
2018-11-10T19:08:23.579Z,41.25
2018-11-10T19:10:51.572Z,43.40
2018-11-10T19:13:19.535Z,42.33
2018-11-10T19:15:47.468Z,37.90
2018-11-10T19:18:15.439Z,41.42
2018-11-10T19:20:43.490Z,45.55
2018-11-10T19:23:11.566Z,39.50
2018-11-10T19:25:39.512Z,40.98
2018-11-10T19:28:07.545Z,45.67
2018-11-10T19:30:35.529Z,44.60
2018-11-10T19:33:03.476Z,41.40
2018-11-10T19:35:31.427Z,44.40
2018-11-10T19:37:59.413Z,42.27
2018-11-10T19:40:27.470Z,41.45
2018-11-10T19:42:55.451Z,44.83
2018-11-10T19:45:23.429Z,37.23
2018-11-10T19:47:51.464Z,45.45
2018-11-10T19:50:19.673Z,35.80
2018-11-10T19:52:47.603Z,36.77
2018-11-10T19:55:18.304Z,46.28
2018-11-10T19:57:46.321Z,48.92
2018-11-10T20:00:17.907Z,45.30
2018-11-10T20:02:45.977Z,40.57
2018-11-10T20:05:13.993Z,48.55
2018-11-10T20:07:42.168Z,42.08
2018-11-10T20:10:15.253Z,46.75
2018-11-10T20:12:43.650Z,48.23
2018-11-10T20:15:12.831Z,42.55
2018-11-10T20:17:41.439Z,47.70
2018-11-10T20:20:10.424Z,53.30
2018-11-10T20:22:38.587Z,50.75
2018-11-10T20:25:09.356Z,42.93
2018-11-10T20:27:37.408Z,48.38
2018-11-10T20:30:07.106Z,49.58
2018-11-10T20:32:35.133Z,46.37
2018-11-10T20:35:03.704Z,43.55
2018-11-10T20:37:31.840Z,44.33
2018-11-10T20:39:59.844Z,42.45
2018-11-10T20:42:27.835Z,53.42
2018-11-10T20:44:55.852Z,39.35
2018-11-10T20:47:23.846Z,45.12
2018-11-10T20:49:51.892Z,46.98
2018-11-10T20:52:19.896Z,48.92
2018-11-10T20:54:47.884Z,50.70
2018-11-10T20:57:15.945Z,53.23
2018-11-10T20:59:44.048Z,48.45
2018-11-10T21:02:12.052Z,48.95
2018-11-10T21:04:39.996Z,45.40
2018-11-10T21:07:07.943Z,47.95
2018-11-10T21:09:36.840Z,46.42
2018-11-10T21:12:04.858Z,34.63
2018-11-10T21:14:32.825Z,46.25
2018-11-10T21:17:00.823Z,43.02
2018-11-10T21:19:28.863Z,44.42
2018-11-10T21:21:56.881Z,46.37
2018-11-10T21:24:25.057Z,43.17
2018-11-10T21:26:53.048Z,50.58
2018-11-10T21:29:21.001Z,46.00
2018-11-10T21:31:49.022Z,42.98
2018-11-10T21:34:17.285Z,46.42
2018-11-10T21:36:45.602Z,54.23
2018-11-10T21:39:13.721Z,42.43
2018-11-10T21:41:41.655Z,42.20
2018-11-10T21:44:09.728Z,39.75
2018-11-10T21:46:40.299Z,43.02
2018-11-10T21:49:09.032Z,41.68
2018-11-10T21:51:37.005Z,46.13
2018-11-10T21:54:05.008Z,42.43
2018-11-10T21:56:32.995Z,41.15
2018-11-10T21:59:00.995Z,45.48
2018-11-10T22:01:28.991Z,58.95
2018-11-10T22:03:57.094Z,55.50
2018-11-10T22:06:25.373Z,51.10
2018-11-10T22:08:53.532Z,45.43
2018-11-10T22:11:21.440Z,53.52
2018-11-10T22:13:49.430Z,57.58
2018-11-10T22:16:18.310Z,47.35
2018-11-10T22:18:47.276Z,48.65
2018-11-10T22:21:15.257Z,48.10
2018-11-10T22:23:43.289Z,39.10
2018-11-10T22:26:18.313Z,50.23
2018-11-10T22:28:47.347Z,47.35
2018-11-10T22:31:15.498Z,50.50
2018-11-10T22:33:43.555Z,55.40
2018-11-10T22:36:12.205Z,47.55
2018-11-10T22:38:40.167Z,50.78
2018-11-10T22:41:08.161Z,47.08
2018-11-10T22:43:36.247Z,48.33
2018-11-10T22:46:04.360Z,59.38
2018-11-10T22:48:32.479Z,51.25
2018-11-10T22:51:00.517Z,49.70
2018-11-10T22:53:29.272Z,46.48
2018-11-10T22:55:58.127Z,56.53
2018-11-10T22:58:26.207Z,43.70
2018-11-10T23:01:00.356Z,46.60
2018-11-10T23:03:28.430Z,52.65
2018-11-10T23:05:56.951Z,54.18
2018-11-10T23:08:25.755Z,56.10
2018-11-10T23:10:56.123Z,50.20
2018-11-10T23:13:24.734Z,44.88
2018-11-10T23:15:52.685Z,53.30
2018-11-10T23:18:22.647Z,47.98
2018-11-10T23:20:50.598Z,50.00
2018-11-10T23:23:18.901Z,49.10
2018-11-10T23:25:47.665Z,41.02
2018-11-10T23:28:15.650Z,50.35
2018-11-10T23:30:44.474Z,47.70
2018-11-10T23:33:13.197Z,50.75
2018-11-10T23:35:41.212Z,54.70
2018-11-10T23:38:10.345Z,49.23
2018-11-10T23:40:39.336Z,56.80
2018-11-10T23:43:08.058Z,49.88
2018-11-10T23:45:36.043Z,51.75
2018-11-10T23:48:05.255Z,48.90
2018-11-10T23:50:33.262Z,44.85
2018-11-10T23:53:01.468Z,52.98
2018-11-10T23:55:30.790Z,52.58
2018-11-10T23:57:59.487Z,54.75
